Time;durP1;ratioP1;P1;durP2;ratioP2;P2;SDS_P1;SDS_P2;PMS_P1;PMS_P2;Temp;Humidity;BMP_temperature;BMP_pressure;BME280_temperature;BME280_humidity;BME280_pressure;Samples;Min_cycle;Max_cycle;Signal;HPM_P1;HPM_P2
2021/12/03 00:01:14;;;;;;;7.20;2.70;;;;;;;0.15;66.45;97401.66;105406;1325;22597;-79
2021/12/03 00:03:42;;;;;;;7.60;2.50;;;;;;;0.17;66.60;97407.20;105436;1325;22652;-79
2021/12/03 00:06:09;;;;;;;13.00;3.50;;;;;;;0.19;67.56;97405.89;105432;1325;22580;-78
2021/12/03 00:08:36;;;;;;;9.40;3.40;;;;;;;0.18;67.23;97408.89;105445;1325;24398;-79
2021/12/03 00:11:04;;;;;;;9.20;3.10;;;;;;;0.17;66.89;97413.70;105427;1325;24100;-77
2021/12/03 00:13:33;;;;;;;11.20;3.60;;;;;;;0.17;66.40;97410.98;105440;1325;24091;-78
2021/12/03 00:16:02;;;;;;;9.80;3.40;;;;;;;0.15;66.16;97414.14;105414;1325;24292;-78
2021/12/03 00:18:30;;;;;;;9.50;2.90;;;;;;;0.13;65.96;97413.88;105443;1324;22602;-78
2021/12/03 00:21:01;;;;;;;7.00;2.80;;;;;;;0.11;66.02;97416.20;105420;1325;24269;-77
2021/12/03 00:23:29;;;;;;;11.60;4.30;;;;;;;0.08;65.79;97419.23;105433;1324;22592;-77
2021/12/03 00:25:59;;;;;;;8.90;3.20;;;;;;;0.06;65.67;97425.48;105448;1325;22588;-79
2021/12/03 00:28:28;;;;;;;8.70;3.00;;;;;;;0.05;65.83;97430.50;105426;1324;22648;-78
2021/12/03 00:30:56;;;;;;;7.20;2.50;;;;;;;0.03;65.76;97436.57;105422;1325;22562;-79
2021/12/03 00:33:25;;;;;;;12.10;3.10;;;;;;;0.02;65.71;97439.67;105417;1325;22655;-78
2021/12/03 00:35:52;;;;;;;11.20;3.30;;;;;;;-0.01;65.68;97442.04;105416;1320;22617;-78
2021/12/03 00:38:20;;;;;;;8.70;3.20;;;;;;;-0.02;65.63;97449.27;105412;1325;22819;-77
2021/12/03 00:40:48;;;;;;;11.70;3.70;;;;;;;-0.06;65.61;97456.10;105429;1325;22692;-78
2021/12/03 00:43:15;;;;;;;8.90;3.10;;;;;;;-0.10;65.55;97462.41;105447;1325;22630;-77
2021/12/03 00:45:44;;;;;;;7.80;2.60;;;;;;;-0.12;65.57;97467.47;105466;1324;22595;-80
2021/12/03 00:48:11;;;;;;;7.50;2.60;;;;;;;-0.14;65.62;97470.82;105242;1325;22733;-78
2021/12/03 00:50:38;;;;;;;10.90;3.70;;;;;;;-0.16;65.71;97478.94;105100;1325;22595;-77
2021/12/03 00:53:06;;;;;;;8.10;2.80;;;;;;;-0.17;65.72;97484.44;105115;1324;23315;-76
2021/12/03 00:55:33;;;;;;;7.90;3.30;;;;;;;-0.17;65.87;97484.46;105355;1325;22616;-76
2021/12/03 00:58:01;;;;;;;8.90;3.40;;;;;;;-0.14;66.37;97492.89;105097;1324;24052;-76
2021/12/03 01:00:32;;;;;;;9.30;2.60;;;;;;;-0.11;66.92;97495.52;105101;1325;22585;-76
2021/12/03 01:03:01;;;;;;;13.50;3.40;;;;;;;-0.10;67.58;97500.61;105133;1325;22649;-78
2021/12/03 01:05:28;;;;;;;8.70;3.30;;;;;;;-0.13;67.53;97506.70;105152;1322;24456;-78
2021/12/03 01:07:56;;;;;;;11.90;3.70;;;;;;;-0.13;67.01;97509.95;105143;1324;22654;-77
2021/12/03 01:10:24;;;;;;;7.90;2.80;;;;;;;-0.13;66.89;97511.15;105120;1323;22584;-78
2021/12/03 01:12:53;;;;;;;12.90;3.70;;;;;;;-0.14;66.72;97509.98;105180;1325;22596;-79
2021/12/03 01:15:25;;;;;;;12.70;3.80;;;;;;;-0.15;66.49;97511.42;105187;1325;23063;-80
2021/12/03 01:17:52;;;;;;;9.80;3.30;;;;;;;-0.20;66.40;97515.40;105144;1325;22760;-79
2021/12/03 01:20:21;;;;;;;8.40;2.90;;;;;;;-0.26;66.37;97518.66;105178;1324;23546;-79
2021/12/03 01:22:50;;;;;;;10.30;3.00;;;;;;;-0.30;66.21;97516.80;105195;1325;22701;-79
2021/12/03 01:25:19;;;;;;;8.90;3.50;;;;;;;-0.34;66.39;97518.52;105160;1325;22602;-78
2021/12/03 01:27:48;;;;;;;10.50;3.60;;;;;;;-0.39;66.30;97520.92;105169;1325;24395;-79
2021/12/03 01:30:19;;;;;;;12.80;4.10;;;;;;;-0.44;66.47;97520.73;105149;1324;26587;-79
2021/12/03 01:32:47;;;;;;;12.00;4.40;;;;;;;-0.47;66.39;97528.25;105172;1325;22652;-79
2021/12/03 01:35:14;;;;;;;14.20;4.70;;;;;;;-0.51;66.53;97532.15;105137;1323;22616;-79
2021/12/03 01:37:42;;;;;;;9.90;4.30;;;;;;;-0.55;66.63;97530.77;105187;1325;22633;-79
2021/12/03 01:40:15;;;;;;;11.10;3.70;;;;;;;-0.60;66.58;97529.05;105211;1325;22568;-79
2021/12/03 01:42:44;;;;;;;9.00;3.60;;;;;;;-0.66;66.65;97531.73;105312;1325;22611;-78
2021/12/03 01:45:16;;;;;;;8.80;3.70;;;;;;;-0.67;67.21;97532.08;105148;1322;23430;-79
2021/12/03 01:47:45;;;;;;;7.90;3.30;;;;;;;-0.70;67.80;97543.83;105116;1325;22710;-79
2021/12/03 01:50:14;;;;;;;9.00;3.60;;;;;;;-0.73;68.56;97544.30;105188;1325;22589;-78
2021/12/03 01:52:41;;;;;;;9.50;3.40;;;;;;;-0.76;68.52;97550.37;105194;1325;23247;-79
2021/12/03 01:55:11;;;;;;;10.20;3.90;;;;;;;-0.80;68.21;97546.23;105174;1324;22701;-78
2021/12/03 01:57:38;;;;;;;11.50;3.90;;;;;;;-0.81;67.99;97540.50;105157;1325;24238;-79
2021/12/03 02:00:11;;;;;;;9.20;4.20;;;;;;;-0.84;67.89;97544.52;105160;1325;22613;-76
2021/12/03 02:02:38;;;;;;;13.30;5.00;;;;;;;-0.88;67.77;97542.94;105170;1325;22601;-76
2021/12/03 02:05:06;;;;;;;15.00;4.50;;;;;;;-0.92;67.64;97550.30;105181;1322;22620;-78
2021/12/03 02:07:33;;;;;;;10.00;3.70;;;;;;;-1.00;67.71;97556.73;105198;1325;24303;-77
2021/12/03 02:10:00;;;;;;;12.00;4.20;;;;;;;-1.06;67.89;97562.41;105075;1325;22616;-77
2021/12/03 02:12:27;;;;;;;11.30;4.00;;;;;;;-1.09;67.97;97567.50;105148;1324;22570;-76
2021/12/03 02:14:54;;;;;;;11.20;4.20;;;;;;;-1.11;67.94;97581.05;105148;1325;22620;-77
2021/12/03 02:17:21;;;;;;;13.30;5.00;;;;;;;-1.14;67.77;97587.46;105148;1325;22654;-76
2021/12/03 02:19:49;;;;;;;9.00;4.00;;;;;;;-1.12;68.21;97598.16;105105;1324;23058;-76
2021/12/03 02:22:17;;;;;;;11.00;4.10;;;;;;;-1.12;68.94;97601.40;105154;1325;22536;-78
2021/12/03 02:24:44;;;;;;;12.50;4.20;;;;;;;-1.11;69.62;97603.96;105109;1319;25532;-77
2021/12/03 02:27:11;;;;;;;14.10;4.80;;;;;;;-1.15;69.67;97606.96;105179;1325;22606;-79
2021/12/03 02:29:38;;;;;;;12.50;4.50;;;;;;;-1.18;69.49;97609.13;105173;1320;22727;-76
2021/12/03 02:32:06;;;;;;;11.20;4.40;;;;;;;-1.21;69.37;97607.52;105097;1325;22616;-78
2021/12/03 02:34:34;;;;;;;11.80;4.10;;;;;;;-1.23;69.03;97611.02;105158;1325;22650;-78
2021/12/03 02:37:01;;;;;;;10.60;4.60;;;;;;;-1.27;69.13;97616.81;105099;1323;22706;-77
2021/12/03 02:39:28;;;;;;;11.70;4.20;;;;;;;-1.28;68.95;97623.50;105197;1325;22654;-78
2021/12/03 02:41:55;;;;;;;11.00;4.30;;;;;;;-1.32;69.01;97628.91;105108;1325;25961;-77
2021/12/03 02:44:22;;;;;;;12.70;4.40;;;;;;;-1.34;69.04;97633.79;105098;1324;22596;-78
2021/12/03 02:46:49;;;;;;;10.40;4.20;;;;;;;-1.36;69.12;97637.59;105136;1325;22616;-78
2021/12/03 02:49:16;;;;;;;9.90;4.40;;;;;;;-1.33;69.26;97642.26;105122;1325;22635;-76
2021/12/03 02:51:43;;;;;;;14.80;5.20;;;;;;;-1.31;69.96;97644.77;105196;1324;22649;-79
2021/12/03 02:54:10;;;;;;;12.10;4.40;;;;;;;-1.30;70.49;97646.61;105181;1323;22717;-79
2021/12/03 02:56:38;;;;;;;10.30;4.10;;;;;;;-1.30;70.61;97651.41;105128;1323;22623;-76
2021/12/03 02:59:05;;;;;;;14.00;4.60;;;;;;;-1.31;70.37;97658.08;105091;1322;22594;-77
2021/12/03 03:01:32;;;;;;;11.10;4.20;;;;;;;-1.31;70.41;97661.66;105100;1325;22999;-77
2021/12/03 03:03:59;;;;;;;10.10;3.90;;;;;;;-1.32;70.19;97663.23;105132;1325;22683;-78
2021/12/03 03:06:26;;;;;;;11.80;4.30;;;;;;;-1.33;70.23;97665.34;105165;1324;22710;-77
2021/12/03 03:08:53;;;;;;;8.20;3.20;;;;;;;-1.33;70.09;97667.04;105088;1324;22589;-79
2021/12/03 03:11:22;;;;;;;9.30;3.70;;;;;;;-1.33;70.00;97671.96;105134;1325;22578;-76
2021/12/03 03:13:49;;;;;;;14.70;4.10;;;;;;;-1.31;70.04;97677.06;105098;1325;22652;-77
2021/12/03 03:16:18;;;;;;;9.50;4.40;;;;;;;-1.27;70.05;97681.55;105118;1325;22698;-78
2021/12/03 03:18:45;;;;;;;12.00;3.90;;;;;;;-1.20;70.33;97685.73;105123;1325;22655;-79
2021/12/03 03:21:13;;;;;;;14.00;4.90;;;;;;;-1.15;71.11;97690.69;105110;1319;22733;-77
2021/12/03 03:23:41;;;;;;;11.50;4.60;;;;;;;-1.13;71.48;97696.28;105118;1325;23875;-77
2021/12/03 03:26:08;;;;;;;10.50;4.70;;;;;;;-1.12;71.52;97694.72;105170;1325;22595;-79
2021/12/03 03:28:36;;;;;;;11.70;3.70;;;;;;;-1.09;71.30;97699.77;105090;1324;22591;-76
2021/12/03 03:31:05;;;;;;;9.50;3.70;;;;;;;-1.07;70.86;97696.44;105146;1325;22626;-76
2021/12/03 03:33:33;;;;;;;10.40;3.30;;;;;;;-1.05;70.72;97699.60;105247;1322;22586;-76
2021/12/03 03:36:00;;;;;;;8.50;3.50;;;;;;;-1.06;70.66;97703.19;105299;1325;22593;-76
2021/12/03 03:38:28;;;;;;;9.00;3.70;;;;;;;-1.04;70.46;97704.02;105428;1325;22654;-78
2021/12/03 03:40:56;;;;;;;10.10;3.60;;;;;;;-1.02;70.24;97701.06;105457;1325;22616;-78
2021/12/03 03:43:23;;;;;;;9.20;3.00;;;;;;;-1.02;70.14;97693.53;105465;1325;24251;-78
2021/12/03 03:45:51;;;;;;;6.90;3.30;;;;;;;-1.02;70.15;97698.64;105220;1325;22648;-79
2021/12/03 03:48:20;;;;;;;8.90;3.60;;;;;;;-0.95;70.39;97705.23;105105;1325;22585;-76
2021/12/03 03:50:47;;;;;;;8.30;3.10;;;;;;;-0.89;71.00;97707.75;105613;1325;22596;-78
2021/12/03 03:53:14;;;;;;;11.10;3.50;;;;;;;-0.85;71.52;97711.05;105174;1325;23088;-76
2021/12/03 03:55:41;;;;;;;9.00;3.40;;;;;;;-0.84;71.51;97714.61;105108;1325;22668;-77
2021/12/03 03:58:09;;;;;;;7.30;3.40;;;;;;;-0.83;71.20;97716.64;105104;1324;22665;-78
2021/12/03 04:00:39;;;;;;;12.70;3.60;;;;;;;-0.82;70.88;97723.24;105048;1325;24408;-77
2021/12/03 04:03:07;;;;;;;14.20;3.20;;;;;;;-0.80;70.64;97726.44;105124;1324;22649;-78
2021/12/03 04:05:34;;;;;;;9.20;3.60;;;;;;;-0.79;70.57;97729.29;105163;1325;22647;-78
2021/12/03 04:08:02;;;;;;;9.90;3.20;;;;;;;-0.77;70.43;97727.02;105078;1324;23086;-76
2021/12/03 04:10:29;;;;;;;8.00;3.20;;;;;;;-0.77;70.29;97731.63;105113;1325;23309;-77
2021/12/03 04:12:57;;;;;;;8.10;3.20;;;;;;;-0.79;70.08;97732.37;105159;1324;22721;-77
2021/12/03 04:15:24;;;;;;;10.30;3.70;;;;;;;-0.80;69.89;97732.92;105175;1322;22616;-77
2021/12/03 04:17:51;;;;;;;9.00;3.40;;;;;;;-0.80;69.94;97738.56;105171;1322;22619;-76
2021/12/03 04:20:20;;;;;;;8.90;3.50;;;;;;;-0.82;69.88;97745.64;105119;1325;22640;-76
2021/12/03 04:22:48;;;;;;;6.90;3.30;;;;;;;-0.77;70.19;97754.17;105140;1325;22712;-77
2021/12/03 04:25:18;;;;;;;8.70;3.30;;;;;;;-0.72;70.69;97757.80;105378;1324;22515;-77
2021/12/03 04:27:46;;;;;;;11.10;3.60;;;;;;;-0.70;71.33;97754.80;105146;1325;25436;-77
2021/12/03 04:30:22;;;;;;;9.90;4.20;;;;;;;-0.72;71.30;97762.23;105406;1324;22641;-78
2021/12/03 04:32:54;;;;;;;10.60;4.30;;;;;;;-0.73;70.93;97767.93;105161;1324;22737;-77
2021/12/03 04:35:22;;;;;;;9.80;4.20;;;;;;;-0.74;70.79;97769.16;105128;1324;23781;-77
2021/12/03 04:37:49;;;;;;;10.50;3.60;;;;;;;-0.73;70.66;97768.45;105159;1322;22674;-76
2021/12/03 04:40:18;;;;;;;11.20;4.20;;;;;;;-0.73;70.60;97769.98;105154;1325;22628;-78
2021/12/03 04:42:45;;;;;;;10.50;3.80;;;;;;;-0.74;70.12;97772.90;105139;1324;23099;-78
2021/12/03 04:45:18;;;;;;;11.40;3.50;;;;;;;-0.79;70.18;97774.25;105141;1324;25293;-77
2021/12/03 04:47:50;;;;;;;11.80;3.40;;;;;;;-0.82;70.08;97779.85;105136;1324;22645;-78
2021/12/03 04:50:18;;;;;;;10.00;3.80;;;;;;;-0.85;70.19;97783.88;105178;1325;23058;-77
2021/12/03 04:52:46;;;;;;;10.70;4.10;;;;;;;-0.87;70.26;97788.88;105173;1325;23038;-78
2021/12/03 04:55:14;;;;;;;11.80;4.30;;;;;;;-0.86;70.15;97791.77;105221;1324;22593;-78
2021/12/03 04:57:41;;;;;;;11.00;4.10;;;;;;;-0.82;70.60;97795.41;105190;1324;22827;-76
2021/12/03 05:00:13;;;;;;;11.00;4.00;;;;;;;-0.81;71.29;97803.05;105152;1325;22579;-76
2021/12/03 05:02:40;;;;;;;10.30;3.10;;;;;;;-0.83;71.86;97806.86;105175;1325;23270;-77
2021/12/03 05:05:08;;;;;;;9.40;4.00;;;;;;;-0.86;71.75;97807.00;105169;1325;22756;-75
2021/12/03 05:10:09;;;;;;;8.60;3.70;;;;;;;-0.97;71.33;97820.15;105079;1324;22651;-75
2021/12/03 05:12:37;;;;;;;11.60;3.50;;;;;;;-1.00;71.15;97820.60;105068;1325;24438;-75
2021/12/03 05:15:05;;;;;;;9.80;4.80;;;;;;;-1.01;71.23;97822.70;105177;1319;22703;-75
2021/12/03 05:17:32;;;;;;;11.40;4.20;;;;;;;-1.00;71.02;97830.54;105069;1325;22563;-76
2021/12/03 05:19:59;;;;;;;10.70;4.00;;;;;;;-1.01;71.14;97826.80;105140;1324;24264;-76
2021/12/03 05:22:26;;;;;;;10.00;4.10;;;;;;;-1.00;71.12;97835.98;105155;1322;22600;-76
2021/12/03 05:24:53;;;;;;;17.70;5.10;;;;;;;-1.00;70.91;97846.58;105101;1325;22614;-76
2021/12/03 05:27:20;;;;;;;14.10;4.60;;;;;;;-0.95;71.16;97847.43;105073;1324;22598;-75
2021/12/03 05:29:49;;;;;;;13.80;4.40;;;;;;;-0.91;71.88;97859.13;105096;1325;22634;-75
2021/12/03 05:32:18;;;;;;;9.40;3.90;;;;;;;-0.92;72.54;97854.35;105091;1325;24480;-74
2021/12/03 05:34:45;;;;;;;10.20;4.10;;;;;;;-0.96;72.41;97860.45;105055;1323;22680;-75
2021/12/03 05:37:13;;;;;;;11.40;3.90;;;;;;;-0.99;72.23;97860.41;105071;1325;22652;-75
2021/12/03 05:39:40;;;;;;;10.90;4.30;;;;;;;-1.04;72.01;97863.63;105094;1324;23511;-74
2021/12/03 05:42:07;;;;;;;10.50;4.20;;;;;;;-1.10;71.86;97864.84;105093;1324;22761;-75
2021/12/03 05:44:35;;;;;;;8.80;3.80;;;;;;;-1.13;71.79;97867.82;105086;1323;22777;-74
2021/12/03 05:47:03;;;;;;;12.20;4.20;;;;;;;-1.15;71.72;97871.95;105125;1325;22677;-75
2021/12/03 05:49:30;;;;;;;10.10;3.90;;;;;;;-1.18;71.89;97874.13;105114;1324;22626;-76
2021/12/03 05:51:58;;;;;;;14.50;4.30;;;;;;;-1.19;71.71;97878.95;105106;1324;23048;-77
2021/12/03 05:54:27;;;;;;;10.90;4.40;;;;;;;-1.17;72.18;97878.02;105088;1325;23086;-76
2021/12/03 05:56:55;;;;;;;20.40;5.80;;;;;;;-1.16;72.83;97880.52;105127;1325;22669;-75
2021/12/03 05:59:22;;;;;;;11.40;4.80;;;;;;;-1.15;73.45;97886.85;105147;1322;22583;-76
2021/12/03 06:01:49;;;;;;;9.00;3.70;;;;;;;-1.19;73.40;97889.03;105172;1323;22734;-77
2021/12/03 06:04:16;;;;;;;11.10;4.30;;;;;;;-1.18;73.01;97893.45;105146;1325;22600;-78
2021/12/03 06:06:43;;;;;;;10.30;5.00;;;;;;;-1.22;72.94;97900.23;105181;1325;22645;-78
2021/12/03 06:09:10;;;;;;;14.20;6.00;;;;;;;-1.26;72.87;97904.78;105154;1322;23991;-78
2021/12/03 06:11:38;;;;;;;10.60;4.40;;;;;;;-1.29;72.57;97910.50;105170;1324;22611;-78
2021/12/03 06:14:05;;;;;;;9.40;3.90;;;;;;;-1.34;72.59;97912.20;105155;1325;22632;-76
2021/12/03 06:16:32;;;;;;;9.10;3.60;;;;;;;-1.39;72.79;97917.10;105067;1324;22670;-76
2021/12/03 06:18:59;;;;;;;13.50;5.20;;;;;;;-1.42;72.68;97921.81;105123;1325;23142;-76
2021/12/03 06:21:26;;;;;;;15.00;4.90;;;;;;;-1.37;73.06;97927.49;105108;1322;24020;-76
2021/12/03 06:23:53;;;;;;;13.80;5.90;;;;;;;-1.36;73.57;97928.83;104947;1325;22722;-76
2021/12/03 06:26:20;;;;;;;18.00;5.90;;;;;;;-1.35;74.17;97930.34;105094;1325;22587;-75
2021/12/03 06:28:47;;;;;;;10.90;4.40;;;;;;;-1.36;74.04;97930.52;105084;1324;24706;-77
2021/12/03 06:31:14;;;;;;;11.10;4.00;;;;;;;-1.38;73.73;97937.24;105397;1325;22725;-77
2021/12/03 06:33:42;;;;;;;10.60;5.00;;;;;;;-1.39;73.52;97941.89;105126;1323;24399;-77
2021/12/03 06:36:09;;;;;;;11.60;4.20;;;;;;;-1.41;73.41;97948.75;105125;1325;22584;-77
2021/12/03 06:38:38;;;;;;;9.70;3.90;;;;;;;-1.41;73.23;97953.71;105147;1323;22653;-78
2021/12/03 06:41:07;;;;;;;8.00;3.60;;;;;;;-1.41;73.07;97956.45;105116;1325;25343;-76
2021/12/03 06:43:34;;;;;;;12.50;5.50;;;;;;;-1.40;73.10;97962.77;105150;1322;22835;-76
2021/12/03 06:46:01;;;;;;;13.40;5.50;;;;;;;-1.33;73.29;97967.17;105486;1325;22588;-76
2021/12/03 06:48:28;;;;;;;11.70;5.40;;;;;;;-1.27;73.80;97970.59;105120;1325;22592;-76
2021/12/03 06:50:56;;;;;;;11.70;5.60;;;;;;;-1.24;74.47;97973.73;105106;1325;26901;-77
2021/12/03 06:53:32;;;;;;;13.10;5.70;;;;;;;-1.23;74.30;97976.78;105119;1322;22590;-77
2021/12/03 06:56:05;;;;;;;11.50;5.00;;;;;;;-1.23;73.96;97973.36;105110;1324;22626;-76
2021/12/03 06:58:32;;;;;;;;;;;;;;;-1.21;73.73;97981.15;105158;1325;22608;-77
2021/12/03 07:00:59;;;;;;;14.40;5.80;;;;;;;-1.22;73.59;97982.56;105103;1324;22689;-76
2021/12/03 07:03:26;;;;;;;14.20;7.30;;;;;;;-1.20;73.37;97985.25;104770;1325;485982;-77
2021/12/03 07:05:54;;;;;;;13.00;6.10;;;;;;;-1.20;73.20;97989.34;105128;1324;24133;-76
2021/12/03 07:08:21;;;;;;;14.00;6.80;;;;;;;-1.18;73.06;97994.40;105133;1324;23077;-76
2021/12/03 07:10:48;;;;;;;17.00;8.00;;;;;;;-1.11;73.12;97999.69;105092;1325;22758;-78
2021/12/03 07:13:15;;;;;;;10.00;5.40;;;;;;;-1.06;73.70;98000.92;105106;1325;22535;-78
2021/12/03 07:15:42;;;;;;;10.70;5.10;;;;;;;-1.04;74.40;98005.12;105113;1324;22737;-78
2021/12/03 07:18:09;;;;;;;14.50;7.20;;;;;;;-1.07;74.19;98007.61;105159;1325;22627;-78
2021/12/03 07:20:36;;;;;;;10.00;5.30;;;;;;;-1.06;74.00;98009.64;105151;1324;22596;-77
2021/12/03 07:23:03;;;;;;;12.00;5.50;;;;;;;-1.05;73.77;98015.23;105146;1324;22630;-76
2021/12/03 07:25:30;;;;;;;10.80;5.80;;;;;;;-1.05;73.62;98024.97;105130;1325;22690;-76
2021/12/03 07:27:57;;;;;;;14.10;6.50;;;;;;;-1.06;73.51;98028.74;105008;1325;22586;-79
2021/12/03 07:30:30;;;;;;;17.20;7.30;;;;;;;-1.05;73.40;98028.05;105125;1325;22591;-79
2021/12/03 07:32:58;;;;;;;16.80;8.40;;;;;;;-1.01;73.37;98028.63;105148;1321;23527;-78
2021/12/03 07:35:25;;;;;;;17.50;8.80;;;;;;;-0.91;73.62;98031.94;105160;1325;22619;-77
2021/12/03 07:37:52;;;;;;;22.10;9.10;;;;;;;-0.84;73.90;98036.52;105112;1324;22663;-77
2021/12/03 07:40:19;;;;;;;22.50;8.80;;;;;;;-0.79;74.56;98040.10;105136;1325;22592;-78
2021/12/03 07:42:46;;;;;;;20.30;7.70;;;;;;;-0.78;74.45;98043.67;105176;1325;22626;-78
2021/12/03 07:45:16;;;;;;;23.30;8.40;;;;;;;-0.74;74.20;98050.42;105109;1325;22723;-79
2021/12/03 07:47:43;;;;;;;24.50;10.50;;;;;;;-0.74;73.99;98055.02;105144;1325;25267;-78
2021/12/03 07:50:11;;;;;;;23.40;10.00;;;;;;;-0.71;73.83;98052.73;105142;1324;22639;-80
2021/12/03 07:52:39;;;;;;;25.90;9.70;;;;;;;-0.67;73.67;98057.05;105198;1325;22739;-78
2021/12/03 07:55:07;;;;;;;13.70;6.20;;;;;;;-0.64;73.32;98063.28;105128;1324;25775;-77
2021/12/03 07:57:35;;;;;;;15.30;6.50;;;;;;;-0.65;73.25;98057.15;105117;1324;22756;-79
2021/12/03 08:00:05;;;;;;;17.30;6.10;;;;;;;-0.61;73.22;98058.74;105110;1324;22660;-80
2021/12/03 08:02:32;;;;;;;16.40;6.60;;;;;;;-0.50;73.31;98060.11;105104;1324;22608;-79
2021/12/03 08:04:59;;;;;;;17.70;7.00;;;;;;;-0.41;73.74;98066.18;105120;1324;22647;-79
2021/12/03 08:07:27;;;;;;;14.70;6.20;;;;;;;-0.37;74.01;98073.77;105127;1323;22612;-78
2021/12/03 08:09:54;;;;;;;13.10;5.00;;;;;;;-0.33;73.53;98076.20;105132;1324;22601;-75
2021/12/03 08:12:21;;;;;;;15.20;5.80;;;;;;;-0.31;72.86;98078.02;105025;1325;22647;-77
2021/12/03 08:14:48;;;;;;;18.00;7.90;;;;;;;-0.34;72.65;98084.61;105147;1324;22588;-79
2021/12/03 08:17:15;;;;;;;13.50;5.50;;;;;;;-0.31;72.33;98084.20;105077;1323;22667;-77
2021/12/03 08:19:41;;;;;;;11.90;4.70;;;;;;;-0.29;71.66;98085.33;105132;1324;22638;-78
2021/12/03 08:22:09;;;;;;;11.30;4.60;;;;;;;-0.30;71.74;98096.48;105191;1322;23245;-79
2021/12/03 08:24:35;;;;;;;9.70;4.40;;;;;;;-0.33;71.68;98099.64;105115;1324;22934;-80
2021/12/03 08:27:03;;;;;;;17.70;6.80;;;;;;;-0.35;71.79;98103.10;105109;1324;22666;-79
2021/12/03 08:29:30;;;;;;;58.20;16.80;;;;;;;-0.32;71.67;98105.25;105095;1322;22776;-79
2021/12/03 08:31:57;;;;;;;27.80;9.10;;;;;;;-0.31;71.41;98109.50;105136;1325;25347;-77
2021/12/03 08:34:24;;;;;;;18.70;8.60;;;;;;;-0.32;71.37;98112.46;105165;1324;22588;-77
2021/12/03 08:36:51;;;;;;;28.60;10.40;;;;;;;-0.25;71.60;98115.48;105176;1325;23136;-78
2021/12/03 08:39:19;;;;;;;17.60;7.20;;;;;;;-0.22;72.09;98125.85;105150;1322;22592;-78
2021/12/03 08:41:46;;;;;;;22.10;8.30;;;;;;;-0.20;72.31;98132.97;105130;1323;26250;-77
2021/12/03 08:44:14;;;;;;;22.80;8.40;;;;;;;-0.20;72.08;98136.58;105177;1324;22677;-77
2021/12/03 08:46:41;;;;;;;18.00;6.90;;;;;;;-0.16;71.78;98138.14;105170;1324;22707;-78
2021/12/03 08:49:28;;;;;;;9.10;3.20;;;;;;;-0.11;71.28;98137.99;105132;1324;25242;-79
2021/12/03 08:52:25;;;;;;;7.40;2.90;;;;;;;-0.11;70.80;98136.63;105123;1325;22639;-77
2021/12/03 08:54:54;;;;;;;7.50;2.00;;;;;;;-0.08;70.00;98142.70;105129;1324;22724;-78
2021/12/03 08:57:24;;;;;;;11.70;3.80;;;;;;;-0.18;69.93;98146.09;105146;1325;25945;-78
2021/12/03 08:59:55;;;;;;;20.10;7.10;;;;;;;-0.25;69.37;98144.76;105142;1325;22589;-79
2021/12/03 09:02:23;;;;;;;17.20;6.20;;;;;;;-0.30;69.35;98143.02;105088;1325;22715;-79
2021/12/03 09:04:50;;;;;;;13.20;4.90;;;;;;;-0.32;69.17;98143.23;105122;1325;22588;-78
2021/12/03 09:07:18;;;;;;;8.20;3.20;;;;;;;-0.31;69.40;98147.33;105176;1322;22783;-78
2021/12/03 09:09:45;;;;;;;9.70;3.40;;;;;;;-0.33;69.28;98150.80;105127;1324;25382;-79
2021/12/03 09:12:13;;;;;;;9.90;3.60;;;;;;;-0.35;69.03;98150.86;105188;1325;22588;-76
2021/12/03 09:15:25;;;;;;;9.20;3.00;;;;;;;-0.38;68.92;98154.72;105152;1325;25372;-78
2021/12/03 09:20:06;;;;;;;12.60;4.50;;;;;;;-0.44;68.88;98154.70;105164;1324;25243;-78
2021/12/03 09:22:45;;;;;;;9.90;3.60;;;;;;;-0.44;68.73;98157.27;105175;1323;22584;-77
2021/12/03 09:25:18;;;;;;;9.10;3.30;;;;;;;-0.44;68.83;98154.35;105111;1325;22626;-80
2021/12/03 09:27:45;;;;;;;10.00;4.30;;;;;;;-0.42;68.76;98149.69;105173;1325;22697;-76
2021/12/03 09:30:14;;;;;;;9.00;3.40;;;;;;;-0.41;68.69;98150.02;105143;1325;25913;-76
2021/12/03 09:32:55;;;;;;;9.80;3.90;;;;;;;-0.40;68.21;98146.73;105158;1325;24264;-76
2021/12/03 09:35:23;;;;;;;7.90;3.20;;;;;;;-0.40;68.27;98141.95;105179;1325;22585;-77
2021/12/03 09:37:51;;;;;;;6.10;2.80;;;;;;;-0.34;68.35;98135.96;105082;1325;23498;-77
2021/12/03 09:40:23;;;;;;;8.70;2.70;;;;;;;-0.28;68.43;98134.58;105051;1322;22689;-75
2021/12/03 09:42:50;;;;;;;10.20;2.70;;;;;;;-0.24;69.13;98129.33;105059;1324;22632;-76
2021/12/03 09:45:18;;;;;;;10.10;3.70;;;;;;;-0.22;68.87;98129.27;105163;1325;24347;-77
2021/12/03 09:47:46;;;;;;;10.90;3.80;;;;;;;-0.19;68.51;98129.15;105120;1324;22766;-77
2021/12/03 09:50:14;;;;;;;5.60;2.40;;;;;;;-0.13;67.56;98126.60;105142;1322;22575;-77
2021/12/03 09:55:15;;;;;;;12.90;3.80;;;;;;;-0.10;66.28;98121.18;105213;1325;22618;-78
2021/12/03 09:57:50;;;;;;;8.00;2.70;;;;;;;-0.08;65.45;98121.10;105163;1324;22713;-79
2021/12/03 10:00:27;;;;;;;7.60;2.10;;;;;;;-0.06;65.75;98115.58;105124;1323;25290;-71
2021/12/03 10:24:53;;;;;;;7.40;2.50;;;;;;;0.16;60.54;98117.98;105400;1324;22681;-83
2021/12/03 10:38:08;;;;;;;7.30;2.90;;;;;;;0.28;60.87;98118.10;105287;1324;24456;-82
2021/12/03 11:03:56;;;;;;;6.10;2.50;;;;;;;0.54;58.25;98101.48;105448;1325;22658;-77
2021/12/03 11:12:15;;;;;;;7.00;2.90;;;;;;;0.55;58.03;98098.20;105407;1324;24261;-77
2021/12/03 11:57:44;;;;;;;8.00;3.40;;;;;;;1.01;56.55;98085.65;104549;1333;22709;-78
2021/12/03 12:44:26;;;;;;;12.20;3.50;;;;;;;1.19;55.77;98117.92;105401;1324;22587;-75
2021/12/03 13:22:36;;;;;;;56.40;17.10;;;;;;;1.22;56.02;98154.73;105066;1325;22608;-79
2021/12/03 13:27:26;;;;;;;57.00;16.60;;;;;;;1.25;55.87;98160.25;105066;1322;22638;-79
2021/12/03 13:31:03;;;;;;;118.30;30.10;;;;;;;1.27;56.21;98156.58;105061;1325;24215;-79
2021/12/03 14:00:24;;;;;;;24.10;10.70;;;;;;;1.09;57.49;98173.15;105191;1324;22712;-79
2021/12/03 14:14:54;;;;;;;30.90;11.40;;;;;;;0.90;57.38;98182.57;105429;1325;22656;-75
2021/12/03 14:36:38;;;;;;;69.90;27.70;;;;;;;0.27;57.82;98192.30;105081;1325;22657;-77
2021/12/03 14:44:40;;;;;;;54.80;23.50;;;;;;;0.08;58.40;98195.29;105115;1323;22654;-76
2021/12/03 14:55:47;;;;;;;49.20;21.60;;;;;;;-0.26;58.81;98200.89;104752;1325;22689;-77
2021/12/03 14:58:32;;;;;;;38.20;19.00;;;;;;;-0.31;58.86;98206.20;105080;1324;22610;-76
2021/12/03 15:01:09;;;;;;;38.50;17.60;;;;;;;-0.37;59.01;98210.80;105094;1325;22787;-72
2021/12/03 15:07:00;;;;;;;64.80;25.90;;;;;;;-0.47;58.94;98214.68;104418;1330;23137;-75
2021/12/03 15:09:34;;;;;;;77.70;31.20;;;;;;;-0.53;59.25;98218.94;104410;1330;22724;-74
2021/12/03 15:39:35;;;;;;;506.60;151.10;;;;;;;-1.02;60.50;98237.67;105115;1325;22659;-76
2021/12/03 15:58:33;;;;;;;228.90;80.40;;;;;;;-1.36;61.33;98251.99;104700;1325;22598;-74
2021/12/03 16:04:22;;;;;;;131.00;52.00;;;;;;;-1.45;61.40;98252.73;105096;1323;22614;-75
2021/12/03 16:09:16;;;;;;;100.90;42.40;;;;;;;-1.52;61.74;98258.34;105097;1325;22572;-75
2021/12/03 16:24:55;;;;;;;67.00;28.70;;;;;;;-1.52;63.15;98268.77;105363;1325;22592;-75
2021/12/03 16:54:09;;;;;;;89.00;36.60;;;;;;;-1.93;62.72;98288.95;105401;1325;22753;-77
2021/12/03 16:56:43;;;;;;;85.00;32.90;;;;;;;-1.98;63.00;98287.52;105395;1324;22673;-82
2021/12/03 16:59:11;;;;;;;73.00;29.70;;;;;;;-2.00;63.00;98285.19;105400;1324;22667;-77
2021/12/03 17:01:54;;;;;;;54.30;21.70;;;;;;;-2.03;62.94;98283.35;105327;1325;22652;-78
2021/12/03 17:04:41;;;;;;;;;;;;;;;-2.07;63.15;98289.77;105264;1324;24106;-79
2021/12/03 17:29:27;;;;;;;51.10;23.60;;;;;;;-2.09;63.97;98307.37;105312;1325;22595;-76
2021/12/03 17:55:58;;;;;;;43.70;17.60;;;;;;;-2.11;64.59;98312.86;105118;1324;22652;-75
2021/12/03 17:58:37;;;;;;;33.90;14.20;;;;;;;-2.14;64.68;98306.42;105069;1323;22674;-76
2021/12/03 18:09:10;;;;;;;33.90;14.30;;;;;;;-2.16;65.02;98296.93;105153;1326;22645;-77
2021/12/03 18:54:54;;;;;;;72.10;24.90;;;;;;;-2.34;66.20;98270.51;105126;1325;22712;-77
2021/12/03 18:57:26;;;;;;;91.90;31.20;;;;;;;-2.35;66.14;98271.54;105123;1325;25243;-78
2021/12/03 18:59:57;;;;;;;74.10;29.00;;;;;;;-2.36;66.27;98270.38;105146;1325;22590;-78
2021/12/03 19:02:26;;;;;;;73.80;29.90;;;;;;;-2.31;66.84;98269.73;105159;1325;23952;-78
2021/12/03 19:07:26;;;;;;;69.90;29.70;;;;;;;-2.23;67.96;98266.19;105167;1325;23385;-77